Sedalia, Ohio
Current Conditions -  °F | °C
As of 11:15 PM on Tuesday 25 Nov 2014 (Local Time) from KUYF Reporting Station
Clear Clear  
Wind Chill: 22°   Ceiling: Unl
Heat Index: 28°   Visibility: 10mi
Dew Point: 27°   Wind: 6mph
Humidity: 93%   Direction: 20°NNE
Pressure: 30.17"   Gusts: NA
Location:  39.73°N, 83.47°W
Report Text: KUYF 260415Z AUTO 02005KT 10SM CLR M02/M03 A3017 RMK AO2
Loading
Personal Weather Stations






























Interactive Weather Map New forecast layout! Learn more

10-Day Weather Forecast

Advertisements
Track Severe Weather on mobile